createdAt,value
2023-05-14T00:01:15.761Z,11.00
2023-05-14T00:04:03.408Z,11.00
2023-05-14T00:06:50.875Z,11.00
2023-05-14T00:09:40.489Z,10.90
2023-05-14T00:12:27.759Z,10.90
2023-05-14T00:15:14.980Z,10.80
2023-05-14T00:18:02.267Z,10.80
2023-05-14T00:20:55.079Z,10.80
2023-05-14T00:23:42.151Z,10.90
2023-05-14T00:26:31.066Z,10.90
2023-05-14T00:29:18.228Z,10.90
2023-05-14T00:32:06.757Z,10.90
2023-05-14T00:34:53.887Z,10.90
2023-05-14T00:37:42.021Z,10.90
2023-05-14T00:40:29.243Z,10.90
2023-05-14T00:43:18.800Z,10.90
2023-05-14T00:46:06.325Z,10.80
2023-05-14T00:48:55.017Z,10.80
2023-05-14T00:51:42.879Z,10.80
2023-05-14T00:54:31.361Z,10.80
2023-05-14T00:57:19.627Z,10.70
2023-05-14T01:00:10.431Z,10.70
2023-05-14T01:03:01.783Z,10.70
2023-05-14T01:06:01.268Z,10.70
2023-05-14T01:08:59.553Z,10.70
2023-05-14T01:11:56.013Z,10.70
2023-05-14T01:14:50.397Z,10.80
2023-05-14T01:17:42.961Z,10.80
2023-05-14T01:20:31.036Z,10.70
2023-05-14T01:23:19.584Z,10.70
2023-05-14T01:26:07.626Z,10.60
2023-05-14T01:28:57.246Z,10.60
2023-05-14T01:31:47.618Z,10.60
2023-05-14T01:34:36.732Z,10.60
2023-05-14T01:37:26.526Z,10.60
2023-05-14T01:40:15.633Z,10.60
2023-05-14T01:43:04.527Z,10.50
2023-05-14T01:45:51.724Z,10.60
2023-05-14T01:48:39.940Z,10.50
2023-05-14T01:51:27.249Z,10.60
2023-05-14T01:54:15.434Z,10.60
2023-05-14T01:57:04.117Z,10.60
2023-05-14T01:59:52.307Z,10.60
2023-05-14T02:02:39.502Z,10.60
2023-05-14T02:05:29.235Z,10.50
2023-05-14T02:08:16.583Z,10.50
2023-05-14T02:11:04.728Z,10.50
2023-05-14T02:13:53.277Z,10.40
2023-05-14T02:16:41.370Z,10.40
2023-05-14T02:19:28.599Z,10.40
2023-05-14T02:22:16.692Z,10.40
2023-05-14T02:25:04.526Z,10.40
2023-05-14T02:27:52.631Z,10.50
2023-05-14T02:30:41.758Z,10.30
2023-05-14T02:33:29.058Z,10.40
2023-05-14T02:36:17.250Z,10.20
2023-05-14T02:39:05.383Z,10.20
2023-05-14T02:41:53.054Z,10.20
2023-05-14T02:44:41.067Z,10.30
2023-05-14T02:47:30.123Z,10.20
2023-05-14T02:50:17.914Z,10.20
2023-05-14T02:53:05.658Z,10.10
2023-05-14T02:55:53.325Z,10.00
2023-05-14T02:58:40.539Z,10.00
2023-05-14T03:01:29.081Z,9.90
2023-05-14T03:04:18.507Z,10.00
2023-05-14T03:07:06.534Z,9.90
2023-05-14T03:09:53.728Z,10.00
2023-05-14T03:12:42.177Z,10.00
2023-05-14T03:15:29.362Z,10.00
2023-05-14T03:18:17.510Z,10.00
2023-05-14T03:21:09.443Z,10.10
2023-05-14T03:23:57.640Z,10.00
2023-05-14T03:26:44.793Z,9.90
2023-05-14T03:29:32.950Z,9.90
2023-05-14T03:32:20.647Z,9.90
2023-05-14T03:35:08.742Z,9.90
2023-05-14T03:37:59.746Z,9.90
2023-05-14T03:40:47.269Z,9.80
2023-05-14T03:43:35.646Z,9.80
2023-05-14T03:46:22.844Z,9.80
2023-05-14T03:49:11.060Z,9.80
2023-05-14T03:51:59.868Z,9.90
2023-05-14T03:54:48.509Z,9.90
2023-05-14T03:57:37.195Z,9.90
2023-05-14T04:00:25.448Z,9.90
2023-05-14T04:03:13.963Z,9.80
2023-05-14T04:06:01.849Z,9.90
2023-05-14T04:08:49.953Z,9.90
2023-05-14T04:11:39.215Z,9.90
2023-05-14T04:14:26.391Z,9.80
2023-05-14T04:17:14.671Z,9.90
2023-05-14T04:20:01.937Z,9.90
2023-05-14T04:22:50.096Z,10.00
2023-05-14T04:25:37.253Z,10.00
2023-05-14T04:28:26.688Z,10.00
2023-05-14T04:31:13.925Z,10.00
2023-05-14T04:34:01.558Z,10.00
2023-05-14T04:36:48.746Z,9.90
2023-05-14T04:39:38.860Z,9.90
2023-05-14T04:42:26.076Z,9.90
2023-05-14T04:45:15.837Z,9.90
2023-05-14T04:48:03.710Z,9.90
2023-05-14T04:50:52.584Z,9.90
2023-05-14T04:53:39.826Z,9.90
2023-05-14T04:56:27.952Z,9.80
2023-05-14T04:59:16.378Z,9.80
2023-05-14T05:02:05.903Z,9.90
2023-05-14T05:04:53.200Z,9.90
2023-05-14T05:07:41.390Z,9.90
2023-05-14T05:10:28.644Z,9.90
2023-05-14T05:13:17.575Z,9.90
2023-05-14T05:16:05.398Z,9.90
2023-05-14T05:18:54.988Z,9.80
2023-05-14T05:21:42.154Z,9.80
2023-05-14T05:24:30.261Z,9.80
2023-05-14T05:27:17.471Z,9.80
2023-05-14T05:30:06.891Z,9.90
2023-05-14T05:32:54.186Z,9.90
2023-05-14T05:35:45.002Z,9.90
2023-05-14T05:38:32.190Z,9.90
2023-05-14T05:41:20.256Z,9.90
2023-05-14T05:44:07.668Z,10.10
2023-05-14T05:46:57.691Z,10.10
2023-05-14T05:49:45.033Z,9.90
2023-05-14T05:52:34.505Z,10.00
2023-05-14T05:55:22.314Z,9.90
2023-05-14T05:58:10.027Z,10.00
2023-05-14T06:00:57.738Z,9.90
2023-05-14T06:03:47.735Z,9.90
2023-05-14T06:06:35.859Z,10.00
2023-05-14T06:09:25.316Z,10.00
2023-05-14T06:12:12.479Z,10.20
2023-05-14T06:15:00.599Z,10.30
2023-05-14T06:17:47.793Z,10.30
2023-05-14T06:20:35.917Z,10.30
2023-05-14T06:23:23.127Z,10.40
2023-05-14T06:26:12.550Z,10.30
2023-05-14T06:28:59.697Z,10.50
2023-05-14T06:31:47.830Z,10.50
2023-05-14T06:34:34.991Z,10.50
2023-05-14T06:37:23.063Z,10.60
2023-05-14T06:40:11.534Z,10.70
2023-05-14T06:43:00.556Z,10.80
2023-05-14T06:45:49.592Z,10.90
2023-05-14T06:48:36.743Z,10.80
2023-05-14T06:51:24.997Z,10.80
2023-05-14T06:54:12.409Z,10.90
2023-05-14T06:57:00.454Z,10.80
2023-05-14T06:59:49.010Z,10.80
2023-05-14T07:02:38.600Z,11.00
2023-05-14T07:05:26.180Z,11.00
2023-05-14T07:08:14.395Z,11.00
2023-05-14T07:11:01.653Z,11.00
2023-05-14T07:13:49.808Z,11.00
2023-05-14T07:16:39.053Z,11.20
2023-05-14T07:19:28.601Z,11.30
2023-05-14T07:22:16.774Z,11.40
2023-05-14T07:25:04.250Z,11.30
2023-05-14T07:27:52.329Z,11.40
2023-05-14T07:30:40.092Z,11.60
2023-05-14T07:33:29.131Z,11.60
2023-05-14T07:36:16.821Z,11.80
2023-05-14T07:39:04.522Z,11.90
2023-05-14T07:41:52.381Z,11.90
2023-05-14T07:44:39.599Z,11.90
2023-05-14T07:47:27.797Z,11.90
2023-05-14T07:50:17.035Z,11.80
2023-05-14T07:53:04.720Z,11.80
2023-05-14T07:55:52.057Z,11.80
2023-05-14T07:58:40.100Z,11.80
2023-05-14T08:01:27.395Z,11.90
2023-05-14T08:04:16.677Z,12.10
2023-05-14T08:07:05.790Z,12.20
2023-05-14T08:09:53.014Z,12.20
2023-05-14T08:12:41.252Z,12.20
2023-05-14T08:15:28.421Z,12.20
2023-05-14T08:18:16.590Z,12.00
2023-05-14T08:21:04.108Z,12.00
2023-05-14T08:23:53.479Z,12.00
2023-05-14T08:26:40.665Z,12.10
2023-05-14T08:29:28.851Z,12.00
2023-05-14T08:32:22.945Z,11.90
2023-05-14T08:35:12.410Z,11.90
2023-05-14T08:38:00.066Z,11.90
2023-05-14T08:40:52.421Z,11.80
2023-05-14T08:43:46.483Z,11.70
2023-05-14T08:46:36.190Z,11.70
2023-05-14T08:49:32.043Z,11.70
2023-05-14T08:52:21.586Z,11.70
2023-05-14T08:55:11.985Z,11.60
2023-05-14T08:58:01.420Z,11.70
2023-05-14T09:00:49.580Z,11.70
2023-05-14T09:03:37.466Z,11.60
2023-05-14T09:06:26.537Z,11.50
2023-05-14T09:09:13.997Z,11.50
2023-05-14T09:12:02.421Z,11.50
2023-05-14T09:14:51.541Z,11.50
2023-05-14T09:17:39.731Z,11.60
2023-05-14T09:20:28.447Z,11.60
2023-05-14T09:23:17.350Z,11.70
2023-05-14T09:26:05.855Z,11.80
2023-05-14T09:28:58.605Z,12.00
2023-05-14T09:31:49.955Z,12.10
2023-05-14T09:34:38.526Z,12.20
2023-05-14T09:37:26.287Z,12.10
2023-05-14T09:40:15.753Z,12.00
2023-05-14T09:43:03.586Z,12.00
2023-05-14T09:45:51.677Z,11.90
2023-05-14T09:48:40.317Z,11.90
2023-05-14T09:51:31.984Z,11.90
2023-05-14T09:54:19.706Z,12.00
2023-05-14T09:57:07.341Z,12.00
2023-05-14T09:59:54.601Z,11.90
2023-05-14T10:02:45.650Z,11.90
2023-05-14T10:05:37.344Z,12.00
2023-05-14T10:08:27.551Z,12.10
2023-05-14T10:11:21.672Z,12.00
2023-05-14T10:14:17.950Z,11.90
2023-05-14T10:17:08.164Z,11.80
2023-05-14T10:19:58.686Z,11.80
2023-05-14T10:22:47.769Z,11.80
2023-05-14T10:25:35.436Z,11.70
2023-05-14T10:28:23.683Z,11.80
2023-05-14T10:31:10.999Z,11.90
2023-05-14T10:33:59.957Z,12.10
2023-05-14T10:36:47.793Z,12.10
2023-05-14T10:39:44.822Z,12.20
2023-05-14T10:42:40.497Z,12.30
2023-05-14T10:45:28.646Z,12.30
2023-05-14T10:48:16.054Z,12.40
2023-05-14T10:51:03.901Z,12.30
2023-05-14T10:53:52.493Z,12.40
2023-05-14T10:56:46.132Z,12.30
2023-05-14T10:59:34.174Z,12.30
2023-05-14T11:02:24.510Z,12.30
2023-05-14T11:05:14.480Z,12.30
2023-05-14T11:08:05.939Z,12.40
2023-05-14T11:10:55.083Z,12.40
2023-05-14T11:13:44.570Z,12.40
2023-05-14T11:16:31.819Z,12.20
2023-05-14T11:19:22.565Z,12.20
2023-05-14T11:22:09.871Z,12.20
2023-05-14T11:24:58.080Z,12.20
2023-05-14T11:27:46.989Z,12.10
2023-05-14T11:30:36.177Z,12.10
2023-05-14T11:33:23.378Z,12.20
2023-05-14T11:36:11.833Z,12.10
2023-05-14T11:38:58.955Z,12.10
2023-05-14T11:41:47.229Z,12.10
2023-05-14T11:44:34.433Z,12.30
2023-05-14T11:47:23.536Z,12.40
2023-05-14T11:50:11.224Z,12.50
2023-05-14T11:52:59.340Z,12.70
2023-05-14T11:55:47.373Z,12.90
2023-05-14T11:58:35.094Z,13.20
2023-05-14T12:01:22.350Z,13.30
2023-05-14T12:04:11.086Z,13.60
2023-05-14T12:07:00.447Z,14.20
2023-05-14T12:09:49.764Z,14.40
2023-05-14T12:12:37.381Z,14.90
2023-05-14T12:15:27.080Z,15.30
2023-05-14T12:18:24.234Z,15.60
2023-05-14T12:21:14.219Z,15.50
2023-05-14T12:24:02.017Z,15.50
2023-05-14T12:26:51.306Z,15.60
2023-05-14T12:29:39.526Z,15.60
2023-05-14T12:32:26.856Z,15.80
2023-05-14T12:35:14.490Z,15.90
2023-05-14T12:38:03.396Z,16.20
2023-05-14T12:40:50.551Z,16.00
2023-05-14T12:43:37.672Z,15.90
2023-05-14T12:46:27.309Z,16.00
2023-05-14T12:49:14.477Z,16.00
2023-05-14T12:52:17.284Z,16.30
2023-05-14T12:55:11.347Z,16.30
2023-05-14T12:57:59.061Z,17.00
2023-05-14T13:00:46.305Z,17.50
2023-05-14T13:03:34.556Z,17.50
2023-05-14T13:06:22.498Z,18.20
2023-05-14T13:09:09.806Z,18.00
2023-05-14T13:11:58.859Z,17.40
2023-05-14T13:14:46.553Z,17.50
2023-05-14T13:17:33.770Z,17.70
2023-05-14T13:20:21.068Z,17.70
2023-05-14T13:23:09.129Z,18.20
2023-05-14T13:25:56.509Z,18.60
2023-05-14T13:28:45.129Z,19.10
2023-05-14T13:31:32.538Z,18.20
2023-05-14T13:34:20.599Z,17.80
2023-05-14T13:37:08.219Z,17.50
2023-05-14T13:39:55.950Z,18.00
2023-05-14T13:42:43.613Z,18.00
2023-05-14T13:45:32.108Z,17.80
2023-05-14T13:48:20.148Z,17.60
2023-05-14T13:51:07.399Z,17.90
2023-05-14T13:53:55.827Z,18.30
2023-05-14T13:56:43.456Z,18.40
2023-05-14T13:59:31.173Z,19.00
2023-05-14T14:02:19.796Z,19.30
2023-05-14T14:05:08.372Z,19.40
2023-05-14T14:08:00.853Z,19.60
2023-05-14T14:10:53.469Z,19.80
2023-05-14T14:13:42.618Z,18.80
2023-05-14T14:16:31.112Z,19.00
2023-05-14T14:19:19.753Z,19.30
2023-05-14T14:22:07.521Z,19.70
2023-05-14T14:24:54.958Z,19.70
2023-05-14T14:27:42.212Z,19.40
2023-05-14T14:30:29.417Z,19.20
2023-05-14T14:33:16.718Z,19.30
2023-05-14T14:36:06.119Z,19.50
2023-05-14T14:38:53.370Z,19.50
2023-05-14T14:41:41.258Z,19.30
2023-05-14T14:44:28.425Z,19.30
2023-05-14T14:47:16.154Z,19.60
2023-05-14T14:50:04.193Z,19.70
2023-05-14T14:52:52.731Z,19.80
2023-05-14T14:55:39.898Z,19.60
2023-05-14T14:58:27.538Z,19.30
2023-05-14T15:01:14.704Z,19.10
2023-05-14T15:04:02.384Z,19.00
2023-05-14T15:06:49.503Z,19.10
2023-05-14T15:09:37.979Z,19.00
2023-05-14T15:12:26.004Z,18.70
2023-05-14T15:15:13.163Z,18.50
2023-05-14T15:18:01.413Z,18.30
2023-05-14T15:20:49.308Z,18.00
2023-05-14T15:23:36.528Z,18.00
2023-05-14T15:26:26.216Z,18.00
2023-05-14T15:29:13.903Z,18.00
2023-05-14T15:32:01.724Z,17.90
2023-05-14T15:34:48.834Z,17.70
2023-05-14T15:37:38.080Z,17.50
2023-05-14T15:40:27.573Z,17.40
2023-05-14T15:43:16.332Z,17.30
2023-05-14T15:46:03.602Z,17.20
2023-05-14T15:48:51.167Z,17.30
2023-05-14T15:51:38.842Z,17.40
2023-05-14T15:54:27.064Z,17.40
2023-05-14T15:57:14.410Z,17.50
2023-05-14T16:00:10.708Z,17.60
2023-05-14T16:02:58.386Z,17.60
2023-05-14T16:05:45.686Z,17.60
2023-05-14T16:08:33.818Z,17.20
2023-05-14T16:11:21.453Z,17.00
2023-05-14T16:14:09.015Z,15.90
2023-05-14T16:16:57.689Z,15.20
2023-05-14T16:19:44.808Z,14.40
2023-05-14T16:22:32.771Z,13.50
2023-05-14T16:25:19.935Z,13.20
2023-05-14T16:28:07.984Z,12.80
2023-05-14T16:30:55.126Z,12.70
2023-05-14T16:33:43.921Z,12.60
2023-05-14T16:36:31.897Z,12.60
2023-05-14T16:39:19.863Z,12.50
2023-05-14T16:42:07.985Z,12.40
2023-05-14T16:44:55.207Z,12.30
2023-05-14T16:47:43.294Z,12.20
2023-05-14T16:50:31.853Z,12.30
2023-05-14T16:53:19.928Z,12.40
2023-05-14T16:56:07.907Z,12.30
2023-05-14T16:58:55.134Z,12.20
2023-05-14T17:01:43.499Z,12.10
2023-05-14T17:04:30.745Z,12.10
2023-05-14T17:07:20.142Z,12.00
2023-05-14T17:10:08.171Z,12.00
2023-05-14T17:12:55.989Z,12.00
2023-05-14T17:15:43.297Z,11.90
2023-05-14T17:18:30.998Z,11.90
2023-05-14T17:21:18.116Z,11.90
2023-05-14T17:24:07.855Z,11.90
2023-05-14T17:26:55.004Z,11.90
2023-05-14T17:29:43.270Z,11.80
2023-05-14T17:32:31.890Z,11.80
2023-05-14T17:35:19.011Z,11.70
2023-05-14T17:38:07.281Z,11.70
2023-05-14T17:40:55.812Z,11.60
2023-05-14T17:43:43.503Z,11.60
2023-05-14T17:46:30.796Z,11.70
2023-05-14T17:49:18.862Z,11.60
2023-05-14T17:52:07.210Z,11.60
2023-05-14T17:54:54.859Z,11.70
2023-05-14T17:57:43.840Z,11.70
2023-05-14T18:00:31.155Z,11.70
2023-05-14T18:03:20.621Z,11.70
2023-05-14T18:06:08.399Z,11.80
2023-05-14T18:08:56.441Z,11.70
2023-05-14T18:11:44.166Z,11.60
2023-05-14T18:14:33.114Z,11.70
2023-05-14T18:17:20.536Z,11.70
2023-05-14T18:20:09.710Z,11.70
2023-05-14T18:22:56.874Z,11.80
2023-05-14T18:25:44.121Z,11.70
2023-05-14T18:28:32.240Z,11.70
2023-05-14T18:31:21.344Z,11.70
2023-05-14T18:34:08.449Z,11.70
2023-05-14T18:36:56.156Z,11.70
2023-05-14T18:39:43.358Z,11.70
2023-05-14T18:42:31.083Z,11.70
2023-05-14T18:45:18.278Z,11.60
2023-05-14T18:48:08.066Z,11.60
2023-05-14T18:50:55.364Z,11.60
2023-05-14T18:53:43.334Z,11.60
2023-05-14T18:56:30.739Z,11.70
2023-05-14T18:59:18.353Z,11.70
2023-05-14T19:02:06.057Z,11.60
2023-05-14T19:04:55.481Z,11.60
2023-05-14T19:07:43.785Z,11.60
2023-05-14T19:10:31.032Z,11.50
2023-05-14T19:13:18.842Z,11.50
2023-05-14T19:16:06.453Z,11.40
2023-05-14T19:18:54.602Z,11.40
2023-05-14T19:21:43.530Z,11.30
2023-05-14T19:24:31.233Z,11.30
2023-05-14T19:27:19.341Z,11.20
2023-05-14T19:30:07.635Z,11.10
2023-05-14T19:32:54.902Z,11.00
2023-05-14T19:35:42.697Z,11.00
2023-05-14T19:38:31.246Z,10.90
2023-05-14T19:41:18.890Z,10.90
2023-05-14T19:44:06.071Z,10.90
2023-05-14T19:46:54.356Z,10.80
2023-05-14T19:49:41.554Z,10.80
2023-05-14T19:52:28.759Z,10.70
2023-05-14T19:55:18.159Z,10.70
2023-05-14T19:58:05.577Z,10.70
2023-05-14T20:00:56.702Z,10.70
2023-05-14T20:03:43.929Z,10.60
2023-05-14T20:06:32.535Z,10.60
2023-05-14T20:09:20.065Z,10.60
2023-05-14T20:12:10.242Z,10.60
2023-05-14T20:14:57.429Z,10.60
2023-05-14T20:17:45.535Z,10.50
2023-05-14T20:20:33.357Z,10.60
2023-05-14T20:23:21.529Z,10.60
2023-05-14T20:26:09.249Z,10.60
2023-05-14T20:28:57.704Z,10.70
2023-05-14T20:31:45.772Z,10.70
2023-05-14T20:34:32.954Z,10.80
2023-05-14T20:37:21.003Z,10.80
2023-05-14T20:40:12.582Z,10.80
2023-05-14T20:43:00.372Z,10.80
2023-05-14T20:45:48.887Z,10.90
2023-05-14T20:48:36.896Z,10.90
2023-05-14T20:51:24.613Z,10.90
2023-05-14T20:54:11.915Z,10.90
2023-05-14T20:56:59.949Z,11.00
2023-05-14T20:59:48.063Z,11.00
2023-05-14T21:02:37.145Z,10.90
2023-05-14T21:05:25.567Z,10.90
2023-05-14T21:08:12.692Z,10.90
2023-05-14T21:11:01.003Z,11.00
2023-05-14T21:13:49.063Z,11.00
2023-05-14T21:16:37.185Z,11.00
2023-05-14T21:19:25.646Z,10.90
2023-05-14T21:22:14.321Z,11.00
2023-05-14T21:25:01.714Z,11.00
2023-05-14T21:27:49.917Z,11.00
2023-05-14T21:30:37.113Z,11.00
2023-05-14T21:33:25.216Z,11.00
2023-05-14T21:36:13.820Z,11.00
2023-05-14T21:39:01.907Z,11.00
2023-05-14T21:41:49.076Z,11.00
2023-05-14T21:44:37.176Z,10.90
2023-05-14T21:47:24.530Z,10.90
2023-05-14T21:50:14.204Z,10.90
2023-05-14T21:53:02.714Z,10.90
2023-05-14T21:55:50.788Z,10.90
2023-05-14T21:58:38.235Z,10.90
2023-05-14T22:01:25.515Z,10.80
2023-05-14T22:04:12.802Z,10.90
2023-05-14T22:07:00.931Z,10.90
2023-05-14T22:09:50.299Z,10.90
2023-05-14T22:12:37.588Z,10.90
2023-05-14T22:15:25.876Z,11.00
2023-05-14T22:18:15.276Z,10.90
2023-05-14T22:21:03.554Z,10.90
2023-05-14T22:23:50.842Z,10.90
2023-05-14T22:26:40.273Z,10.90
2023-05-14T22:29:27.952Z,10.90
2023-05-14T22:32:15.082Z,10.80
2023-05-14T22:35:02.753Z,10.80
2023-05-14T22:37:49.865Z,10.80
2023-05-14T22:40:37.434Z,10.70
2023-05-14T22:43:25.907Z,10.70
2023-05-14T22:46:13.503Z,10.70
2023-05-14T22:49:00.644Z,10.70
2023-05-14T22:51:48.671Z,10.70
2023-05-14T22:54:36.830Z,10.70
2023-05-14T22:57:24.510Z,10.60
2023-05-14T23:00:14.523Z,10.60
2023-05-14T23:03:03.367Z,10.60
2023-05-14T23:05:52.487Z,10.60
2023-05-14T23:08:39.710Z,10.60
2023-05-14T23:11:27.818Z,10.50
2023-05-14T23:14:15.591Z,10.50
2023-05-14T23:17:04.345Z,10.40
2023-05-14T23:19:52.722Z,10.40
2023-05-14T23:22:40.074Z,10.40
2023-05-14T23:25:28.152Z,10.30
2023-05-14T23:28:15.509Z,10.30
2023-05-14T23:31:03.530Z,10.30
2023-05-14T23:33:52.047Z,10.30
2023-05-14T23:36:40.911Z,10.30
2023-05-14T23:39:28.135Z,10.40
2023-05-14T23:42:16.270Z,10.40
2023-05-14T23:45:03.929Z,10.40
2023-05-14T23:47:51.729Z,10.40
2023-05-14T23:50:40.287Z,10.40
2023-05-14T23:53:28.394Z,10.40
2023-05-14T23:56:16.146Z,10.40
2023-05-14T23:59:03.682Z,10.40
